sensor_id;sensor_type;location;lat;lon;timestamp;pressure;altitude;pressure_sealevel;temperature
29423;BMP180;16399;51.686;8.684;2023-12-29T00:02:27;99232.00;;;9.90
29423;BMP180;16399;51.686;8.684;2023-12-29T00:05:29;99235.00;;;9.90
29423;BMP180;16399;51.686;8.684;2023-12-29T00:08:32;99235.00;;;9.90
29423;BMP180;16399;51.686;8.684;2023-12-29T00:11:34;99231.00;;;9.90
29423;BMP180;16399;51.686;8.684;2023-12-29T00:14:40;99233.00;;;10.00
29423;BMP180;16399;51.686;8.684;2023-12-29T00:17:42;99230.00;;;10.00
29423;BMP180;16399;51.686;8.684;2023-12-29T00:20:45;99217.00;;;10.00
29423;BMP180;16399;51.686;8.684;2023-12-29T00:23:47;99216.00;;;10.10
29423;BMP180;16399;51.686;8.684;2023-12-29T00:26:50;99215.00;;;10.10
29423;BMP180;16399;51.686;8.684;2023-12-29T00:29:52;99205.00;;;10.20
29423;BMP180;16399;51.686;8.684;2023-12-29T00:32:54;99207.00;;;10.20
29423;BMP180;16399;51.686;8.684;2023-12-29T00:35:56;99203.00;;;10.20
29423;BMP180;16399;51.686;8.684;2023-12-29T00:38:59;99191.00;;;10.20
29423;BMP180;16399;51.686;8.684;2023-12-29T00:42:01;99191.00;;;10.30
29423;BMP180;16399;51.686;8.684;2023-12-29T00:45:04;99192.00;;;10.30
29423;BMP180;16399;51.686;8.684;2023-12-29T00:48:07;99187.00;;;10.30
29423;BMP180;16399;51.686;8.684;2023-12-29T00:51:10;99184.00;;;10.30
29423;BMP180;16399;51.686;8.684;2023-12-29T00:54:12;99202.00;;;10.30
29423;BMP180;16399;51.686;8.684;2023-12-29T00:57:15;99217.00;;;10.30
29423;BMP180;16399;51.686;8.684;2023-12-29T01:00:17;99207.00;;;10.40
29423;BMP180;16399;51.686;8.684;2023-12-29T01:03:19;99192.00;;;10.40
29423;BMP180;16399;51.686;8.684;2023-12-29T01:06:23;99199.00;;;10.40
29423;BMP180;16399;51.686;8.684;2023-12-29T01:09:26;99208.00;;;10.40
29423;BMP180;16399;51.686;8.684;2023-12-29T01:12:29;99196.00;;;10.40
29423;BMP180;16399;51.686;8.684;2023-12-29T01:15:31;99190.00;;;10.40
29423;BMP180;16399;51.686;8.684;2023-12-29T01:18:33;99190.00;;;10.40
29423;BMP180;16399;51.686;8.684;2023-12-29T01:21:37;99179.00;;;10.40
29423;BMP180;16399;51.686;8.684;2023-12-29T01:24:40;99189.00;;;10.50
29423;BMP180;16399;51.686;8.684;2023-12-29T01:27:42;99187.00;;;10.50
29423;BMP180;16399;51.686;8.684;2023-12-29T01:30:44;99175.00;;;10.50
29423;BMP180;16399;51.686;8.684;2023-12-29T01:33:46;99175.00;;;10.60
29423;BMP180;16399;51.686;8.684;2023-12-29T01:36:49;99167.00;;;10.60
29423;BMP180;16399;51.686;8.684;2023-12-29T01:39:51;99158.00;;;10.60
29423;BMP180;16399;51.686;8.684;2023-12-29T01:42:53;99162.00;;;10.60
29423;BMP180;16399;51.686;8.684;2023-12-29T01:45:56;99141.00;;;10.60
29423;BMP180;16399;51.686;8.684;2023-12-29T01:48:58;99147.00;;;10.60
29423;BMP180;16399;51.686;8.684;2023-12-29T01:52:02;99141.00;;;10.60
29423;BMP180;16399;51.686;8.684;2023-12-29T01:55:05;99120.00;;;10.60
29423;BMP180;16399;51.686;8.684;2023-12-29T01:58:07;99109.00;;;10.70
29423;BMP180;16399;51.686;8.684;2023-12-29T02:01:10;99116.00;;;10.70
29423;BMP180;16399;51.686;8.684;2023-12-29T02:04:13;99103.00;;;10.60
29423;BMP180;16399;51.686;8.684;2023-12-29T02:07:16;99122.00;;;10.70
29423;BMP180;16399;51.686;8.684;2023-12-29T02:10:18;99112.00;;;10.70
29423;BMP180;16399;51.686;8.684;2023-12-29T02:13:21;99118.00;;;10.70
29423;BMP180;16399;51.686;8.684;2023-12-29T02:16:30;99127.00;;;10.70
29423;BMP180;16399;51.686;8.684;2023-12-29T02:19:42;99132.00;;;10.60
29423;BMP180;16399;51.686;8.684;2023-12-29T02:22:45;99127.00;;;10.60
29423;BMP180;16399;51.686;8.684;2023-12-29T02:25:47;99126.00;;;10.60
29423;BMP180;16399;51.686;8.684;2023-12-29T02:28:53;99118.00;;;10.60
29423;BMP180;16399;51.686;8.684;2023-12-29T02:31:57;99116.00;;;10.60
29423;BMP180;16399;51.686;8.684;2023-12-29T02:35:02;99102.00;;;10.60
29423;BMP180;16399;51.686;8.684;2023-12-29T02:38:04;99107.00;;;10.60
29423;BMP180;16399;51.686;8.684;2023-12-29T02:41:07;99109.00;;;10.60
29423;BMP180;16399;51.686;8.684;2023-12-29T02:44:10;99101.00;;;10.70
29423;BMP180;16399;51.686;8.684;2023-12-29T02:47:12;99092.00;;;10.70
29423;BMP180;16399;51.686;8.684;2023-12-29T02:50:14;99092.00;;;10.70
29423;BMP180;16399;51.686;8.684;2023-12-29T02:53:17;99100.00;;;10.70
29423;BMP180;16399;51.686;8.684;2023-12-29T02:56:19;99085.00;;;10.60
29423;BMP180;16399;51.686;8.684;2023-12-29T02:59:21;99100.00;;;10.40
29423;BMP180;16399;51.686;8.684;2023-12-29T03:02:24;99098.00;;;10.30
29423;BMP180;16399;51.686;8.684;2023-12-29T03:05:26;99097.00;;;10.10
29423;BMP180;16399;51.686;8.684;2023-12-29T03:08:28;99099.00;;;9.90
29423;BMP180;16399;51.686;8.684;2023-12-29T03:11:32;99106.00;;;9.70
29423;BMP180;16399;51.686;8.684;2023-12-29T03:14:34;99105.00;;;9.70
29423;BMP180;16399;51.686;8.684;2023-12-29T03:17:37;99116.00;;;9.60
29423;BMP180;16399;51.686;8.684;2023-12-29T03:20:39;99125.00;;;9.50
29423;BMP180;16399;51.686;8.684;2023-12-29T03:23:41;99128.00;;;9.30
29423;BMP180;16399;51.686;8.684;2023-12-29T03:26:43;99123.00;;;9.20
29423;BMP180;16399;51.686;8.684;2023-12-29T03:29:46;99139.00;;;9.00
29423;BMP180;16399;51.686;8.684;2023-12-29T03:32:48;99133.00;;;8.90
29423;BMP180;16399;51.686;8.684;2023-12-29T03:35:50;99127.00;;;8.80
29423;BMP180;16399;51.686;8.684;2023-12-29T03:38:53;99129.00;;;8.70
29423;BMP180;16399;51.686;8.684;2023-12-29T03:41:55;99128.00;;;8.70
29423;BMP180;16399;51.686;8.684;2023-12-29T03:44:57;99119.00;;;8.60
29423;BMP180;16399;51.686;8.684;2023-12-29T03:48:00;99136.00;;;8.50
29423;BMP180;16399;51.686;8.684;2023-12-29T03:51:02;99135.00;;;8.50
29423;BMP180;16399;51.686;8.684;2023-12-29T03:54:04;99132.00;;;8.40
29423;BMP180;16399;51.686;8.684;2023-12-29T03:57:07;99115.00;;;8.40
29423;BMP180;16399;51.686;8.684;2023-12-29T04:00:13;99108.00;;;8.40
29423;BMP180;16399;51.686;8.684;2023-12-29T04:03:16;99113.00;;;8.30
29423;BMP180;16399;51.686;8.684;2023-12-29T04:06:18;99108.00;;;8.30
29423;BMP180;16399;51.686;8.684;2023-12-29T04:09:21;99101.00;;;8.30
29423;BMP180;16399;51.686;8.684;2023-12-29T04:12:23;99105.00;;;8.30
29423;BMP180;16399;51.686;8.684;2023-12-29T04:15:26;99097.00;;;8.20
29423;BMP180;16399;51.686;8.684;2023-12-29T04:18:29;99087.00;;;8.20
29423;BMP180;16399;51.686;8.684;2023-12-29T04:21:31;99081.00;;;8.20
29423;BMP180;16399;51.686;8.684;2023-12-29T04:24:34;99078.00;;;8.20
29423;BMP180;16399;51.686;8.684;2023-12-29T04:27:36;99084.00;;;8.20
29423;BMP180;16399;51.686;8.684;2023-12-29T04:30:38;99082.00;;;8.30
29423;BMP180;16399;51.686;8.684;2023-12-29T04:33:40;99063.00;;;8.30
29423;BMP180;16399;51.686;8.684;2023-12-29T04:36:43;99076.00;;;8.30
29423;BMP180;16399;51.686;8.684;2023-12-29T04:39:45;99080.00;;;8.40
29423;BMP180;16399;51.686;8.684;2023-12-29T04:42:47;99077.00;;;8.40
29423;BMP180;16399;51.686;8.684;2023-12-29T04:45:50;99080.00;;;8.40
29423;BMP180;16399;51.686;8.684;2023-12-29T04:48:52;99079.00;;;8.50
29423;BMP180;16399;51.686;8.684;2023-12-29T04:51:54;99091.00;;;8.50
29423;BMP180;16399;51.686;8.684;2023-12-29T04:54:56;99072.00;;;8.60
29423;BMP180;16399;51.686;8.684;2023-12-29T04:57:59;99093.00;;;8.60
29423;BMP180;16399;51.686;8.684;2023-12-29T05:01:01;99081.00;;;8.60
29423;BMP180;16399;51.686;8.684;2023-12-29T05:04:03;99081.00;;;8.60
29423;BMP180;16399;51.686;8.684;2023-12-29T05:07:08;99065.00;;;8.60
29423;BMP180;16399;51.686;8.684;2023-12-29T05:10:10;99056.00;;;8.60
29423;BMP180;16399;51.686;8.684;2023-12-29T05:13:12;99067.00;;;8.60
29423;BMP180;16399;51.686;8.684;2023-12-29T05:16:14;99066.00;;;8.60
29423;BMP180;16399;51.686;8.684;2023-12-29T05:19:16;99068.00;;;8.60
29423;BMP180;16399;51.686;8.684;2023-12-29T05:22:19;99058.00;;;8.60
29423;BMP180;16399;51.686;8.684;2023-12-29T05:25:21;99052.00;;;8.60
29423;BMP180;16399;51.686;8.684;2023-12-29T05:28:25;99067.00;;;8.60
29423;BMP180;16399;51.686;8.684;2023-12-29T05:31:27;99070.00;;;8.60
29423;BMP180;16399;51.686;8.684;2023-12-29T05:34:29;99068.00;;;8.60
29423;BMP180;16399;51.686;8.684;2023-12-29T05:37:32;99054.00;;;8.60
29423;BMP180;16399;51.686;8.684;2023-12-29T05:40:34;99059.00;;;8.70
29423;BMP180;16399;51.686;8.684;2023-12-29T05:43:36;99063.00;;;8.70
29423;BMP180;16399;51.686;8.684;2023-12-29T05:46:39;99072.00;;;8.80
29423;BMP180;16399;51.686;8.684;2023-12-29T05:49:41;99090.00;;;8.80
29423;BMP180;16399;51.686;8.684;2023-12-29T05:52:43;99070.00;;;8.90
29423;BMP180;16399;51.686;8.684;2023-12-29T05:55:45;99077.00;;;9.00
29423;BMP180;16399;51.686;8.684;2023-12-29T05:58:48;99085.00;;;9.00
29423;BMP180;16399;51.686;8.684;2023-12-29T06:01:50;99076.00;;;9.10
29423;BMP180;16399;51.686;8.684;2023-12-29T06:04:52;99083.00;;;9.10
29423;BMP180;16399;51.686;8.684;2023-12-29T06:07:55;99096.00;;;9.10
29423;BMP180;16399;51.686;8.684;2023-12-29T06:10:57;99081.00;;;9.10
29423;BMP180;16399;51.686;8.684;2023-12-29T06:13:59;99085.00;;;9.20
29423;BMP180;16399;51.686;8.684;2023-12-29T06:17:01;99075.00;;;9.20
29423;BMP180;16399;51.686;8.684;2023-12-29T06:20:04;99080.00;;;9.20
29423;BMP180;16399;51.686;8.684;2023-12-29T06:23:07;99087.00;;;9.20
29423;BMP180;16399;51.686;8.684;2023-12-29T06:26:19;99088.00;;;9.20
29423;BMP180;16399;51.686;8.684;2023-12-29T06:29:22;99088.00;;;9.20
29423;BMP180;16399;51.686;8.684;2023-12-29T06:32:24;99073.00;;;9.10
29423;BMP180;16399;51.686;8.684;2023-12-29T06:35:26;99073.00;;;9.10
29423;BMP180;16399;51.686;8.684;2023-12-29T06:38:29;99076.00;;;9.10
29423;BMP180;16399;51.686;8.684;2023-12-29T06:41:31;99082.00;;;9.00
29423;BMP180;16399;51.686;8.684;2023-12-29T06:44:34;99093.00;;;9.00
29423;BMP180;16399;51.686;8.684;2023-12-29T06:47:36;99083.00;;;9.00
29423;BMP180;16399;51.686;8.684;2023-12-29T06:50:38;99080.00;;;9.00
29423;BMP180;16399;51.686;8.684;2023-12-29T06:53:40;99100.00;;;9.00
29423;BMP180;16399;51.686;8.684;2023-12-29T06:56:43;99091.00;;;9.10
29423;BMP180;16399;51.686;8.684;2023-12-29T06:59:45;99084.00;;;9.10
29423;BMP180;16399;51.686;8.684;2023-12-29T07:02:48;99085.00;;;9.20
29423;BMP180;16399;51.686;8.684;2023-12-29T07:05:50;99081.00;;;9.20
29423;BMP180;16399;51.686;8.684;2023-12-29T07:08:52;99094.00;;;9.30
29423;BMP180;16399;51.686;8.684;2023-12-29T07:11:54;99103.00;;;9.30
29423;BMP180;16399;51.686;8.684;2023-12-29T07:14:57;99108.00;;;9.30
29423;BMP180;16399;51.686;8.684;2023-12-29T07:17:59;99114.00;;;9.40
29423;BMP180;16399;51.686;8.684;2023-12-29T07:21:01;99100.00;;;9.40
29423;BMP180;16399;51.686;8.684;2023-12-29T07:24:04;99087.00;;;9.40
29423;BMP180;16399;51.686;8.684;2023-12-29T07:27:06;99091.00;;;9.50
29423;BMP180;16399;51.686;8.684;2023-12-29T07:30:09;99094.00;;;9.50
29423;BMP180;16399;51.686;8.684;2023-12-29T07:33:11;99096.00;;;9.50
29423;BMP180;16399;51.686;8.684;2023-12-29T07:36:13;99109.00;;;9.50
29423;BMP180;16399;51.686;8.684;2023-12-29T07:39:16;99095.00;;;9.60
29423;BMP180;16399;51.686;8.684;2023-12-29T07:42:18;99103.00;;;9.60
29423;BMP180;16399;51.686;8.684;2023-12-29T07:45:20;99106.00;;;9.60
29423;BMP180;16399;51.686;8.684;2023-12-29T07:48:22;99102.00;;;9.60
29423;BMP180;16399;51.686;8.684;2023-12-29T07:51:25;99095.00;;;9.70
29423;BMP180;16399;51.686;8.684;2023-12-29T07:54:27;99099.00;;;9.70
29423;BMP180;16399;51.686;8.684;2023-12-29T07:57:29;99099.00;;;9.80
29423;BMP180;16399;51.686;8.684;2023-12-29T08:00:32;99095.00;;;9.80
29423;BMP180;16399;51.686;8.684;2023-12-29T08:03:35;99099.00;;;9.80
29423;BMP180;16399;51.686;8.684;2023-12-29T08:06:40;99090.00;;;9.90
29423;BMP180;16399;51.686;8.684;2023-12-29T08:09:42;99094.00;;;9.90
29423;BMP180;16399;51.686;8.684;2023-12-29T08:12:45;99100.00;;;9.90
29423;BMP180;16399;51.686;8.684;2023-12-29T08:15:47;99088.00;;;9.90
29423;BMP180;16399;51.686;8.684;2023-12-29T08:18:50;99090.00;;;9.90
29423;BMP180;16399;51.686;8.684;2023-12-29T08:21:52;99089.00;;;9.80
29423;BMP180;16399;51.686;8.684;2023-12-29T08:24:54;99102.00;;;9.60
29423;BMP180;16399;51.686;8.684;2023-12-29T08:27:57;99097.00;;;9.50
29423;BMP180;16399;51.686;8.684;2023-12-29T08:30:59;99093.00;;;9.40
29423;BMP180;16399;51.686;8.684;2023-12-29T08:34:01;99103.00;;;9.30
29423;BMP180;16399;51.686;8.684;2023-12-29T08:37:04;99110.00;;;9.20
29423;BMP180;16399;51.686;8.684;2023-12-29T08:40:07;99125.00;;;9.10
29423;BMP180;16399;51.686;8.684;2023-12-29T08:43:10;99107.00;;;9.10
29423;BMP180;16399;51.686;8.684;2023-12-29T08:46:12;99108.00;;;9.00
29423;BMP180;16399;51.686;8.684;2023-12-29T08:49:14;99102.00;;;8.90
29423;BMP180;16399;51.686;8.684;2023-12-29T08:52:17;99104.00;;;8.90
29423;BMP180;16399;51.686;8.684;2023-12-29T08:55:19;99107.00;;;8.80
29423;BMP180;16399;51.686;8.684;2023-12-29T08:58:21;99111.00;;;8.80
29423;BMP180;16399;51.686;8.684;2023-12-29T09:01:24;99112.00;;;8.80
29423;BMP180;16399;51.686;8.684;2023-12-29T09:04:26;99103.00;;;8.70
29423;BMP180;16399;51.686;8.684;2023-12-29T09:07:28;99087.00;;;8.70
29423;BMP180;16399;51.686;8.684;2023-12-29T09:10:31;99096.00;;;8.70
29423;BMP180;16399;51.686;8.684;2023-12-29T09:13:33;99098.00;;;8.70
29423;BMP180;16399;51.686;8.684;2023-12-29T09:16:36;99112.00;;;8.70
29423;BMP180;16399;51.686;8.684;2023-12-29T09:19:38;99108.00;;;8.70
29423;BMP180;16399;51.686;8.684;2023-12-29T09:22:40;99113.00;;;8.70
29423;BMP180;16399;51.686;8.684;2023-12-29T09:25:43;99102.00;;;8.70
29423;BMP180;16399;51.686;8.684;2023-12-29T09:28:45;99105.00;;;8.80
29423;BMP180;16399;51.686;8.684;2023-12-29T09:31:48;99104.00;;;8.80
29423;BMP180;16399;51.686;8.684;2023-12-29T09:34:50;99108.00;;;8.90
29423;BMP180;16399;51.686;8.684;2023-12-29T09:37:52;99098.00;;;8.90
29423;BMP180;16399;51.686;8.684;2023-12-29T09:40:59;99104.00;;;9.00
29423;BMP180;16399;51.686;8.684;2023-12-29T09:44:04;99091.00;;;9.00
29423;BMP180;16399;51.686;8.684;2023-12-29T09:47:09;99093.00;;;9.00
29423;BMP180;16399;51.686;8.684;2023-12-29T09:50:13;99092.00;;;9.00
29423;BMP180;16399;51.686;8.684;2023-12-29T09:53:18;99106.00;;;9.10
29423;BMP180;16399;51.686;8.684;2023-12-29T09:56:22;99089.00;;;9.10
29423;BMP180;16399;51.686;8.684;2023-12-29T09:59:27;99097.00;;;9.20
29423;BMP180;16399;51.686;8.684;2023-12-29T10:02:30;99093.00;;;9.20
29423;BMP180;16399;51.686;8.684;2023-12-29T10:05:32;99096.00;;;9.30
29423;BMP180;16399;51.686;8.684;2023-12-29T10:08:36;99101.00;;;9.30
29423;BMP180;16399;51.686;8.684;2023-12-29T10:11:39;99111.00;;;9.40
29423;BMP180;16399;51.686;8.684;2023-12-29T10:14:57;99092.00;;;9.40
29423;BMP180;16399;51.686;8.684;2023-12-29T10:18:18;99086.00;;;9.40
29423;BMP180;16399;51.686;8.684;2023-12-29T10:21:27;99094.00;;;9.40
29423;BMP180;16399;51.686;8.684;2023-12-29T10:24:27;99104.00;;;9.40
29423;BMP180;16399;51.686;8.684;2023-12-29T10:27:29;99093.00;;;9.40
29423;BMP180;16399;51.686;8.684;2023-12-29T10:30:32;99080.00;;;9.50
29423;BMP180;16399;51.686;8.684;2023-12-29T10:33:34;99092.00;;;9.60
29423;BMP180;16399;51.686;8.684;2023-12-29T10:36:52;99078.00;;;9.50
29423;BMP180;16399;51.686;8.684;2023-12-29T10:39:57;99077.00;;;9.50
29423;BMP180;16399;51.686;8.684;2023-12-29T10:42:59;99089.00;;;9.50
29423;BMP180;16399;51.686;8.684;2023-12-29T10:46:06;99092.00;;;9.50
29423;BMP180;16399;51.686;8.684;2023-12-29T10:49:12;99082.00;;;9.50
29423;BMP180;16399;51.686;8.684;2023-12-29T10:52:16;99097.00;;;9.60
29423;BMP180;16399;51.686;8.684;2023-12-29T10:55:18;99070.00;;;9.50
29423;BMP180;16399;51.686;8.684;2023-12-29T10:58:20;99079.00;;;9.50
29423;BMP180;16399;51.686;8.684;2023-12-29T11:01:23;99083.00;;;9.50
29423;BMP180;16399;51.686;8.684;2023-12-29T11:04:26;99083.00;;;9.50
29423;BMP180;16399;51.686;8.684;2023-12-29T11:07:37;99073.00;;;9.60
29423;BMP180;16399;51.686;8.684;2023-12-29T11:10:40;99079.00;;;9.60
29423;BMP180;16399;51.686;8.684;2023-12-29T11:13:43;99084.00;;;9.70
29423;BMP180;16399;51.686;8.684;2023-12-29T11:16:46;99093.00;;;9.70
29423;BMP180;16399;51.686;8.684;2023-12-29T11:19:52;99077.00;;;9.70
29423;BMP180;16399;51.686;8.684;2023-12-29T11:22:54;99066.00;;;9.70
29423;BMP180;16399;51.686;8.684;2023-12-29T11:25:57;99051.00;;;9.70
29423;BMP180;16399;51.686;8.684;2023-12-29T11:29:01;99050.00;;;9.80
29423;BMP180;16399;51.686;8.684;2023-12-29T11:32:08;99063.00;;;9.80
29423;BMP180;16399;51.686;8.684;2023-12-29T11:35:17;99064.00;;;9.80
29423;BMP180;16399;51.686;8.684;2023-12-29T11:38:26;99050.00;;;9.90
29423;BMP180;16399;51.686;8.684;2023-12-29T11:41:47;99055.00;;;9.90
29423;BMP180;16399;51.686;8.684;2023-12-29T11:44:48;99049.00;;;9.90
29423;BMP180;16399;51.686;8.684;2023-12-29T11:47:52;99048.00;;;9.90
29423;BMP180;16399;51.686;8.684;2023-12-29T11:50:56;99043.00;;;9.90
29423;BMP180;16399;51.686;8.684;2023-12-29T11:53:58;99050.00;;;10.00
29423;BMP180;16399;51.686;8.684;2023-12-29T11:57:00;99037.00;;;10.10
29423;BMP180;16399;51.686;8.684;2023-12-29T12:00:03;99037.00;;;10.20
29423;BMP180;16399;51.686;8.684;2023-12-29T12:03:26;99047.00;;;10.30
29423;BMP180;16399;51.686;8.684;2023-12-29T12:06:38;99052.00;;;10.40
29423;BMP180;16399;51.686;8.684;2023-12-29T12:09:40;99054.00;;;10.50
29423;BMP180;16399;51.686;8.684;2023-12-29T12:12:43;99057.00;;;10.50
29423;BMP180;16399;51.686;8.684;2023-12-29T12:15:45;99055.00;;;10.50
29423;BMP180;16399;51.686;8.684;2023-12-29T12:18:47;99049.00;;;10.60
29423;BMP180;16399;51.686;8.684;2023-12-29T12:21:52;99061.00;;;10.60
29423;BMP180;16399;51.686;8.684;2023-12-29T12:24:57;99060.00;;;10.60
29423;BMP180;16399;51.686;8.684;2023-12-29T12:27:59;99062.00;;;10.40
29423;BMP180;16399;51.686;8.684;2023-12-29T12:31:06;99081.00;;;10.10
29423;BMP180;16399;51.686;8.684;2023-12-29T12:34:10;99083.00;;;9.90
29423;BMP180;16399;51.686;8.684;2023-12-29T12:37:12;99078.00;;;9.80
29423;BMP180;16399;51.686;8.684;2023-12-29T12:40:27;99061.00;;;9.80
29423;BMP180;16399;51.686;8.684;2023-12-29T12:43:30;99056.00;;;9.80
29423;BMP180;16399;51.686;8.684;2023-12-29T12:46:34;99043.00;;;9.90
29423;BMP180;16399;51.686;8.684;2023-12-29T12:49:37;99048.00;;;9.90
29423;BMP180;16399;51.686;8.684;2023-12-29T12:52:40;99056.00;;;9.90
29423;BMP180;16399;51.686;8.684;2023-12-29T12:55:42;99061.00;;;9.90
29423;BMP180;16399;51.686;8.684;2023-12-29T12:58:45;99050.00;;;10.00
29423;BMP180;16399;51.686;8.684;2023-12-29T13:01:47;99038.00;;;10.00
29423;BMP180;16399;51.686;8.684;2023-12-29T13:04:50;99031.00;;;10.10
29423;BMP180;16399;51.686;8.684;2023-12-29T13:07:56;99035.00;;;10.10
29423;BMP180;16399;51.686;8.684;2023-12-29T13:10:58;99020.00;;;10.20
29423;BMP180;16399;51.686;8.684;2023-12-29T13:14:07;99039.00;;;10.20
29423;BMP180;16399;51.686;8.684;2023-12-29T13:17:10;99027.00;;;10.30
29423;BMP180;16399;51.686;8.684;2023-12-29T13:20:13;99024.00;;;10.30
29423;BMP180;16399;51.686;8.684;2023-12-29T13:23:15;99016.00;;;10.30
29423;BMP180;16399;51.686;8.684;2023-12-29T13:26:18;99021.00;;;10.40
29423;BMP180;16399;51.686;8.684;2023-12-29T13:29:22;99026.00;;;10.50
29423;BMP180;16399;51.686;8.684;2023-12-29T13:32:30;99025.00;;;10.50
29423;BMP180;16399;51.686;8.684;2023-12-29T13:35:37;99033.00;;;10.50
29423;BMP180;16399;51.686;8.684;2023-12-29T13:38:44;99025.00;;;10.50
29423;BMP180;16399;51.686;8.684;2023-12-29T13:41:49;99021.00;;;10.40
29423;BMP180;16399;51.686;8.684;2023-12-29T13:44:53;99024.00;;;10.40
29423;BMP180;16399;51.686;8.684;2023-12-29T13:47:56;99027.00;;;10.30
29423;BMP180;16399;51.686;8.684;2023-12-29T13:50:59;99024.00;;;10.20
29423;BMP180;16399;51.686;8.684;2023-12-29T13:54:02;99034.00;;;10.20
29423;BMP180;16399;51.686;8.684;2023-12-29T13:57:04;99036.00;;;10.10
29423;BMP180;16399;51.686;8.684;2023-12-29T14:00:20;99050.00;;;10.10
29423;BMP180;16399;51.686;8.684;2023-12-29T14:03:26;99039.00;;;10.00
29423;BMP180;16399;51.686;8.684;2023-12-29T14:06:36;99044.00;;;9.80
29423;BMP180;16399;51.686;8.684;2023-12-29T14:09:35;99040.00;;;9.60
29423;BMP180;16399;51.686;8.684;2023-12-29T14:12:38;99057.00;;;9.50
29423;BMP180;16399;51.686;8.684;2023-12-29T14:15:44;99068.00;;;9.30
29423;BMP180;16399;51.686;8.684;2023-12-29T14:18:55;99065.00;;;9.20
29423;BMP180;16399;51.686;8.684;2023-12-29T14:21:58;99079.00;;;9.10
29423;BMP180;16399;51.686;8.684;2023-12-29T14:25:05;99064.00;;;9.00
29423;BMP180;16399;51.686;8.684;2023-12-29T14:28:19;99079.00;;;8.90
29423;BMP180;16399;51.686;8.684;2023-12-29T14:31:23;99075.00;;;8.80
29423;BMP180;16399;51.686;8.684;2023-12-29T14:34:25;99088.00;;;8.80
29423;BMP180;16399;51.686;8.684;2023-12-29T14:37:28;99102.00;;;8.60
29423;BMP180;16399;51.686;8.684;2023-12-29T14:40:31;99106.00;;;8.50
29423;BMP180;16399;51.686;8.684;2023-12-29T14:43:37;99100.00;;;8.40
29423;BMP180;16399;51.686;8.684;2023-12-29T14:46:39;99089.00;;;8.30
29423;BMP180;16399;51.686;8.684;2023-12-29T14:49:42;99066.00;;;8.20
29423;BMP180;16399;51.686;8.684;2023-12-29T14:52:44;99077.00;;;8.10
29423;BMP180;16399;51.686;8.684;2023-12-29T14:55:46;99075.00;;;8.00
29423;BMP180;16399;51.686;8.684;2023-12-29T14:58:49;99088.00;;;8.00
29423;BMP180;16399;51.686;8.684;2023-12-29T15:01:51;99078.00;;;8.00
29423;BMP180;16399;51.686;8.684;2023-12-29T15:04:53;99063.00;;;7.90
29423;BMP180;16399;51.686;8.684;2023-12-29T15:07:56;99056.00;;;7.90
29423;BMP180;16399;51.686;8.684;2023-12-29T15:10:58;99053.00;;;7.90
29423;BMP180;16399;51.686;8.684;2023-12-29T15:14:00;99072.00;;;7.90
29423;BMP180;16399;51.686;8.684;2023-12-29T15:17:03;99074.00;;;7.90
29423;BMP180;16399;51.686;8.684;2023-12-29T15:20:06;99070.00;;;7.80
29423;BMP180;16399;51.686;8.684;2023-12-29T15:23:08;99059.00;;;7.80
29423;BMP180;16399;51.686;8.684;2023-12-29T15:26:11;99057.00;;;7.80
29423;BMP180;16399;51.686;8.684;2023-12-29T15:29:15;99089.00;;;7.80
29423;BMP180;16399;51.686;8.684;2023-12-29T15:32:17;99095.00;;;7.70
29423;BMP180;16399;51.686;8.684;2023-12-29T15:35:19;99078.00;;;7.70
29423;BMP180;16399;51.686;8.684;2023-12-29T15:38:22;99059.00;;;7.70
29423;BMP180;16399;51.686;8.684;2023-12-29T15:41:24;99066.00;;;7.60
29423;BMP180;16399;51.686;8.684;2023-12-29T15:44:27;99048.00;;;7.60
29423;BMP180;16399;51.686;8.684;2023-12-29T15:47:29;99030.00;;;7.60
29423;BMP180;16399;51.686;8.684;2023-12-29T15:50:31;99034.00;;;7.60
29423;BMP180;16399;51.686;8.684;2023-12-29T15:53:34;99052.00;;;7.70
29423;BMP180;16399;51.686;8.684;2023-12-29T15:56:36;99044.00;;;7.70
29423;BMP180;16399;51.686;8.684;2023-12-29T15:59:38;99034.00;;;7.70
29423;BMP180;16399;51.686;8.684;2023-12-29T16:02:41;99024.00;;;7.70
29423;BMP180;16399;51.686;8.684;2023-12-29T16:05:43;99034.00;;;7.80
29423;BMP180;16399;51.686;8.684;2023-12-29T16:08:46;99024.00;;;7.80
29423;BMP180;16399;51.686;8.684;2023-12-29T16:11:48;99020.00;;;7.80
29423;BMP180;16399;51.686;8.684;2023-12-29T16:14:51;99021.00;;;7.90
29423;BMP180;16399;51.686;8.684;2023-12-29T16:17:54;99019.00;;;7.90
29423;BMP180;16399;51.686;8.684;2023-12-29T16:20:56;99013.00;;;8.00
29423;BMP180;16399;51.686;8.684;2023-12-29T16:23:59;99002.00;;;8.10
29423;BMP180;16399;51.686;8.684;2023-12-29T16:27:03;98992.00;;;8.20
29423;BMP180;16399;51.686;8.684;2023-12-29T16:30:06;98986.00;;;8.20
29423;BMP180;16399;51.686;8.684;2023-12-29T16:33:09;98984.00;;;8.30
29423;BMP180;16399;51.686;8.684;2023-12-29T16:36:12;98977.00;;;8.40
29423;BMP180;16399;51.686;8.684;2023-12-29T16:39:15;98991.00;;;8.40
29423;BMP180;16399;51.686;8.684;2023-12-29T16:42:17;98983.00;;;8.50
29423;BMP180;16399;51.686;8.684;2023-12-29T16:45:20;98994.00;;;8.50
29423;BMP180;16399;51.686;8.684;2023-12-29T16:48:22;98982.00;;;8.60
29423;BMP180;16399;51.686;8.684;2023-12-29T16:51:25;98980.00;;;8.50
29423;BMP180;16399;51.686;8.684;2023-12-29T16:54:27;98969.00;;;8.60
29423;BMP180;16399;51.686;8.684;2023-12-29T16:57:29;98982.00;;;8.60
29423;BMP180;16399;51.686;8.684;2023-12-29T17:00:32;98978.00;;;8.60
29423;BMP180;16399;51.686;8.684;2023-12-29T17:03:34;98971.00;;;8.60
29423;BMP180;16399;51.686;8.684;2023-12-29T17:06:37;98973.00;;;8.70
29423;BMP180;16399;51.686;8.684;2023-12-29T17:09:40;98957.00;;;8.70
29423;BMP180;16399;51.686;8.684;2023-12-29T17:12:43;98959.00;;;8.70
29423;BMP180;16399;51.686;8.684;2023-12-29T17:15:45;98957.00;;;8.70
29423;BMP180;16399;51.686;8.684;2023-12-29T17:18:48;98968.00;;;8.70
29423;BMP180;16399;51.686;8.684;2023-12-29T17:21:50;98963.00;;;8.70
29423;BMP180;16399;51.686;8.684;2023-12-29T17:24:52;98963.00;;;8.70
29423;BMP180;16399;51.686;8.684;2023-12-29T17:27:56;98956.00;;;8.80
29423;BMP180;16399;51.686;8.684;2023-12-29T17:30:58;98944.00;;;8.80
29423;BMP180;16399;51.686;8.684;2023-12-29T17:34:00;98947.00;;;8.80
29423;BMP180;16399;51.686;8.684;2023-12-29T17:37:03;98947.00;;;8.90
29423;BMP180;16399;51.686;8.684;2023-12-29T17:40:05;98969.00;;;8.90
29423;BMP180;16399;51.686;8.684;2023-12-29T17:43:08;98954.00;;;8.90
29423;BMP180;16399;51.686;8.684;2023-12-29T17:46:11;98973.00;;;8.90
29423;BMP180;16399;51.686;8.684;2023-12-29T17:49:14;98969.00;;;8.80